createdAt,value
2022-08-14T00:00:41.519Z,1008.7
2022-08-14T00:01:55.733Z,1008.7
2022-08-14T00:03:05.187Z,1008.7
2022-08-14T00:04:42.541Z,1008.7
2022-08-14T00:06:00.149Z,1008.6
2022-08-14T00:07:30.885Z,1008.7
2022-08-14T00:08:45.615Z,1008.7
2022-08-14T00:10:53.106Z,1008.7
2022-08-14T00:11:57.125Z,1008.6
2022-08-14T00:12:59.492Z,1008.6
2022-08-14T00:14:17.778Z,1008.7
2022-08-14T00:15:22.228Z,1008.6
2022-08-14T00:16:45.252Z,1008.6
2022-08-14T00:17:54.024Z,1008.5
2022-08-14T00:19:21.271Z,1008.5
2022-08-14T00:20:41.361Z,1008.6
2022-08-14T00:21:50.825Z,1008.6
2022-08-14T00:22:58.664Z,1008.5
2022-08-14T00:24:30.708Z,1008.5
2022-08-14T00:25:42.957Z,1008.6
2022-08-14T00:27:24.217Z,1008.5
2022-08-14T00:28:35.965Z,1008.5
2022-08-14T00:29:42.885Z,1008.5
2022-08-14T00:30:45.476Z,1008.5
2022-08-14T00:31:56.819Z,1008.4
2022-08-14T00:33:00.404Z,1008.4
2022-08-14T00:34:46.187Z,1008.4
2022-08-14T00:36:48.744Z,1008.4
2022-08-14T00:37:53.154Z,1008.3
2022-08-14T00:38:57.105Z,1008.3
2022-08-14T00:40:00.485Z,1008.3
2022-08-14T00:41:39.462Z,1008.3
2022-08-14T00:43:12.479Z,1008.3
2022-08-14T00:44:33.398Z,1008.3
2022-08-14T00:45:37.737Z,1008.3
2022-08-14T00:46:59.073Z,1008.3
2022-08-14T00:48:04.336Z,1008.3
2022-08-14T00:49:07.120Z,1008.3
2022-08-14T00:50:18.553Z,1008.3
2022-08-14T00:51:38.473Z,1008.3
2022-08-14T00:52:44.697Z,1008.2
2022-08-14T00:53:53.666Z,1008.2
2022-08-14T00:54:58.865Z,1008.2
2022-08-14T00:56:08.843Z,1008.2
2022-08-14T00:57:17.791Z,1008.2
2022-08-14T00:58:33.344Z,1008.2
2022-08-14T00:59:35.814Z,1008.2
2022-08-14T01:00:57.610Z,1008.2
2022-08-14T01:02:04.475Z,1008.2
2022-08-14T01:03:12.771Z,1008.2
2022-08-14T01:04:54.934Z,1008.2
2022-08-14T01:05:58.488Z,1008.2
2022-08-14T01:07:09.838Z,1008.2
2022-08-14T01:08:59.376Z,1008.2
2022-08-14T01:10:03.893Z,1008.1
2022-08-14T01:11:06.984Z,1008.1
2022-08-14T01:12:11.614Z,1008.1
2022-08-14T01:13:43.365Z,1008.1
2022-08-14T01:15:09.894Z,1008.1
2022-08-14T01:16:28.174Z,1008.1
2022-08-14T01:17:34.225Z,1008.1
2022-08-14T01:18:36.013Z,1008.1
2022-08-14T01:19:41.684Z,1008.1
2022-08-14T01:20:54.877Z,1008.1
2022-08-14T01:22:02.227Z,1008.1
2022-08-14T01:23:07.510Z,1008.1
2022-08-14T01:24:11.509Z,1008.1
2022-08-14T01:25:39.826Z,1008.1
2022-08-14T01:26:51.046Z,1008
2022-08-14T01:27:58.367Z,1008
2022-08-14T01:29:02.276Z,1008
2022-08-14T01:30:07.148Z,1008.1
2022-08-14T01:31:10.222Z,1008.1
2022-08-14T01:32:16.144Z,1008.1
2022-08-14T01:35:16.696Z,1008.1
2022-08-14T01:37:25.143Z,1008.1
2022-08-14T01:38:28.392Z,1008.1
2022-08-14T01:39:32.816Z,1008.1
2022-08-14T01:40:42.233Z,1008.1
2022-08-14T01:41:45.696Z,1008.1
2022-08-14T01:42:52.749Z,1008.2
2022-08-14T01:43:59.408Z,1008.2
2022-08-14T01:45:02.301Z,1008.2
2022-08-14T01:46:07.219Z,1008.2
2022-08-14T01:47:38.300Z,1008.2
2022-08-14T01:48:40.645Z,1008.2
2022-08-14T01:50:01.471Z,1008.2
2022-08-14T01:51:20.242Z,1008.3
2022-08-14T01:53:00.384Z,1008.2
2022-08-14T01:54:09.769Z,1008.2
2022-08-14T01:55:24.336Z,1008.2
2022-08-14T01:56:39.111Z,1008.2
2022-08-14T01:58:19.245Z,1008.2
2022-08-14T01:59:38.682Z,1008.3
2022-08-14T02:00:48.446Z,1008.3
2022-08-14T02:01:59.485Z,1008.3
2022-08-14T02:03:22.140Z,1008.3
2022-08-14T02:04:57.683Z,1008.3
2022-08-14T02:06:33.691Z,1008.2
2022-08-14T02:08:08.700Z,1008.2
2022-08-14T02:09:38.121Z,1008.1
2022-08-14T02:10:47.728Z,1008.1
2022-08-14T02:11:55.097Z,1008.1
2022-08-14T02:12:59.897Z,1008.1
2022-08-14T02:14:14.553Z,1008.1
2022-08-14T02:15:43.497Z,1008
2022-08-14T02:16:50.021Z,1008
2022-08-14T02:17:56.840Z,1008
2022-08-14T02:19:02.799Z,1008
2022-08-14T02:20:04.808Z,1008
2022-08-14T02:21:07.778Z,1008
2022-08-14T02:22:11.509Z,1008
2022-08-14T02:23:54.195Z,1008
2022-08-14T02:24:58.688Z,1008
2022-08-14T02:26:29.441Z,1008
2022-08-14T02:30:04.159Z,1007.9
2022-08-14T02:31:09.788Z,1007.9
2022-08-14T02:32:36.224Z,1007.9
2022-08-14T02:33:51.612Z,1007.8
2022-08-14T02:34:53.989Z,1007.8
2022-08-14T02:37:06.519Z,1007.9
2022-08-14T02:38:35.064Z,1007.8
2022-08-14T02:39:38.238Z,1007.8
2022-08-14T02:40:42.846Z,1007.7
2022-08-14T02:41:58.434Z,1007.7
2022-08-14T02:43:08.269Z,1007.7
2022-08-14T02:44:15.033Z,1007.7
2022-08-14T02:45:45.414Z,1007.7
2022-08-14T02:47:01.857Z,1007.7
2022-08-14T02:49:06.428Z,1007.7
2022-08-14T02:50:11.499Z,1007.7
2022-08-14T02:51:19.197Z,1007.6
2022-08-14T02:53:02.944Z,1007.6
2022-08-14T02:54:09.239Z,1007.7
2022-08-14T02:55:21.765Z,1007.7
2022-08-14T02:57:16.899Z,1007.7
2022-08-14T02:58:48.608Z,1007.7
2022-08-14T03:00:06.704Z,1007.7
2022-08-14T03:01:24.275Z,1007.7
2022-08-14T03:03:00.059Z,1007.6
2022-08-14T03:04:10.688Z,1007.7
2022-08-14T03:05:14.887Z,1007.6
2022-08-14T03:06:56.788Z,1007.7
2022-08-14T03:08:11.784Z,1007.7
2022-08-14T03:09:22.245Z,1007.7
2022-08-14T03:10:34.101Z,1007.7
2022-08-14T03:11:36.868Z,1007.7
2022-08-14T03:12:39.037Z,1007.6
2022-08-14T03:13:41.676Z,1007.6
2022-08-14T03:14:45.378Z,1007.7
2022-08-14T03:15:57.932Z,1007.6
2022-08-14T03:17:10.186Z,1007.7
2022-08-14T03:18:18.823Z,1007.6
2022-08-14T03:19:34.300Z,1007.7
2022-08-14T03:20:39.370Z,1007.6
2022-08-14T03:21:41.480Z,1007.6
2022-08-14T03:22:51.095Z,1007.6
2022-08-14T03:23:53.499Z,1007.6
2022-08-14T03:24:57.125Z,1007.6
2022-08-14T03:26:00.472Z,1007.7
2022-08-14T03:27:07.071Z,1007.6
2022-08-14T03:28:33.144Z,1007.7
2022-08-14T03:29:44.235Z,1007.6
2022-08-14T03:30:54.942Z,1007.6
2022-08-14T03:32:04.012Z,1007.6
2022-08-14T03:33:11.431Z,1007.6
2022-08-14T03:34:47.434Z,1007.5
2022-08-14T03:39:08.387Z,1007.5
2022-08-14T03:40:30.623Z,1007.5
2022-08-14T03:41:34.877Z,1007.5
2022-08-14T03:42:45.601Z,1007.5
2022-08-14T03:45:20.600Z,1007.5
2022-08-14T03:46:56.559Z,1007.5
2022-08-14T03:48:02.492Z,1007.4
2022-08-14T03:49:42.804Z,1007.4
2022-08-14T03:50:56.410Z,1007.5
2022-08-14T03:52:02.588Z,1007.4
2022-08-14T03:53:56.886Z,1007.5
2022-08-14T03:54:59.706Z,1007.4
2022-08-14T03:56:02.926Z,1007.4
2022-08-14T03:57:09.176Z,1007.4
2022-08-14T03:58:34.928Z,1007.4
2022-08-14T03:59:40.105Z,1007.4
2022-08-14T04:00:45.872Z,1007.4
2022-08-14T04:02:02.471Z,1007.4
2022-08-14T04:03:57.911Z,1007.4
2022-08-14T04:05:13.232Z,1007.4
2022-08-14T04:06:21.579Z,1007.4
2022-08-14T04:08:29.614Z,1007.3
2022-08-14T04:09:34.412Z,1007.4
2022-08-14T04:10:39.704Z,1007.3
2022-08-14T04:11:42.321Z,1007.3
2022-08-14T04:12:52.284Z,1007.3
2022-08-14T04:14:05.848Z,1007.3
2022-08-14T04:15:10.197Z,1007.3
2022-08-14T04:16:13.320Z,1007.3
2022-08-14T04:17:18.481Z,1007.3
2022-08-14T04:18:25.716Z,1007.3
2022-08-14T04:19:36.319Z,1007.3
2022-08-14T04:20:55.047Z,1007.3
2022-08-14T04:22:04.434Z,1007.3
2022-08-14T04:23:18.533Z,1007.3
2022-08-14T04:24:39.453Z,1007.3
2022-08-14T04:25:44.641Z,1007.3
2022-08-14T04:26:49.926Z,1007.2
2022-08-14T04:28:04.061Z,1007.2
2022-08-14T04:29:16.074Z,1007.3
2022-08-14T04:30:33.347Z,1007.3
2022-08-14T04:33:06.488Z,1007.2
2022-08-14T04:34:28.475Z,1007.3
2022-08-14T04:35:57.344Z,1007.3
2022-08-14T04:37:00.061Z,1007.3
2022-08-14T04:38:39.714Z,1007.3
2022-08-14T04:39:47.472Z,1007.3
2022-08-14T04:41:10.178Z,1007.3
2022-08-14T04:42:14.563Z,1007.3
2022-08-14T04:43:21.379Z,1007.3
2022-08-14T04:44:37.309Z,1007.3
2022-08-14T04:45:39.922Z,1007.3
2022-08-14T04:46:57.794Z,1007.3
2022-08-14T04:48:00.176Z,1007.3
2022-08-14T04:49:02.596Z,1007.3
2022-08-14T04:50:16.809Z,1007.3
2022-08-14T04:51:20.859Z,1007.3
2022-08-14T04:52:27.551Z,1007.2
2022-08-14T04:53:40.965Z,1007.3
2022-08-14T04:54:49.200Z,1007.2
2022-08-14T04:55:52.029Z,1007.2
2022-08-14T04:56:56.339Z,1007.2
2022-08-14T04:57:59.935Z,1007.2
2022-08-14T04:59:35.340Z,1007.2
2022-08-14T05:00:38.326Z,1007.2
2022-08-14T05:01:57.496Z,1007.2
2022-08-14T05:03:01.241Z,1007.2
2022-08-14T05:04:14.551Z,1007.2
2022-08-14T05:05:24.023Z,1007.3
2022-08-14T05:06:39.737Z,1007.3
2022-08-14T05:08:01.398Z,1007.3
2022-08-14T05:10:16.593Z,1007.2
2022-08-14T05:11:37.184Z,1007.2
2022-08-14T05:13:29.811Z,1007.2
2022-08-14T05:15:57.419Z,1007.1
2022-08-14T05:17:02.366Z,1007.2
2022-08-14T05:18:36.977Z,1007.2
2022-08-14T05:22:57.317Z,1007.1
2022-08-14T05:24:04.120Z,1007.1
2022-08-14T05:25:20.650Z,1007.1
2022-08-14T05:26:24.832Z,1007.1
2022-08-14T05:27:31.434Z,1007.1
2022-08-14T05:28:34.562Z,1007
2022-08-14T05:29:37.906Z,1007
2022-08-14T05:30:42.349Z,1007
2022-08-14T05:31:49.199Z,1007
2022-08-14T05:33:01.097Z,1007
2022-08-14T05:34:03.551Z,1007
2022-08-14T05:35:05.348Z,1007.1
2022-08-14T05:36:17.195Z,1007.1
2022-08-14T05:37:30.123Z,1007.1
2022-08-14T05:38:35.889Z,1007
2022-08-14T05:39:41.156Z,1007.1
2022-08-14T05:40:43.908Z,1007.1
2022-08-14T05:41:54.476Z,1007
2022-08-14T05:42:58.374Z,1007
2022-08-14T05:44:00.724Z,1007
2022-08-14T05:45:04.487Z,1007
2022-08-14T05:46:16.380Z,1007
2022-08-14T05:47:19.547Z,1007
2022-08-14T05:48:41.463Z,1007
2022-08-14T05:49:49.650Z,1006.9
2022-08-14T05:50:54.109Z,1006.9
2022-08-14T05:51:58.916Z,1006.9
2022-08-14T05:53:22.062Z,1006.9
2022-08-14T05:54:27.949Z,1006.9
2022-08-14T05:55:44.920Z,1007
2022-08-14T05:56:53.502Z,1007
2022-08-14T05:57:59.970Z,1006.9
2022-08-14T05:59:02.598Z,1007
2022-08-14T06:00:04.668Z,1007
2022-08-14T06:01:32.330Z,1006.9
2022-08-14T06:02:37.366Z,1006.9
2022-08-14T06:03:40.660Z,1006.8
2022-08-14T06:04:58.971Z,1006.9
2022-08-14T06:06:03.275Z,1006.9
2022-08-14T06:07:05.426Z,1006.9
2022-08-14T06:08:41.173Z,1006.8
2022-08-14T06:09:52.699Z,1006.8
2022-08-14T06:10:55.343Z,1006.9
2022-08-14T06:11:58.526Z,1006.8
2022-08-14T06:13:02.868Z,1006.8
2022-08-14T06:14:23.787Z,1006.8
2022-08-14T06:15:31.035Z,1006.8
2022-08-14T06:16:33.580Z,1006.8
2022-08-14T06:17:47.600Z,1006.7
2022-08-14T06:19:05.306Z,1006.7
2022-08-14T06:20:22.332Z,1006.7
2022-08-14T06:21:26.204Z,1006.6
2022-08-14T06:22:37.998Z,1006.7
2022-08-14T06:23:41.864Z,1006.7
2022-08-14T06:24:44.279Z,1006.7
2022-08-14T06:25:53.604Z,1006.7
2022-08-14T06:27:06.302Z,1006.7
2022-08-14T06:28:28.800Z,1006.7
2022-08-14T06:29:34.850Z,1006.7
2022-08-14T06:30:47.575Z,1006.7
2022-08-14T06:32:00.811Z,1006.7
2022-08-14T06:35:12.783Z,1006.7
2022-08-14T06:36:18.759Z,1006.7
2022-08-14T06:37:21.859Z,1006.7
2022-08-14T06:38:26.695Z,1006.7
2022-08-14T06:39:37.953Z,1006.7
2022-08-14T06:40:46.438Z,1006.6
2022-08-14T06:41:59.983Z,1006.6
2022-08-14T06:43:03.904Z,1006.7
2022-08-14T06:44:09.977Z,1006.6
2022-08-14T06:45:15.590Z,1006.7
2022-08-14T06:46:34.525Z,1006.7
2022-08-14T06:47:44.152Z,1006.7
2022-08-14T06:48:49.515Z,1006.6
2022-08-14T06:49:58.725Z,1006.6
2022-08-14T06:51:01.497Z,1006.6
2022-08-14T06:52:05.738Z,1006.6
2022-08-14T06:53:10.569Z,1006.6
2022-08-14T06:54:12.996Z,1006.6
2022-08-14T06:55:19.967Z,1006.7
2022-08-14T06:56:32.398Z,1006.6
2022-08-14T06:57:36.777Z,1006.6
2022-08-14T06:58:42.997Z,1006.6
2022-08-14T06:59:44.850Z,1006.7
2022-08-14T07:00:48.863Z,1006.6
2022-08-14T07:01:56.876Z,1006.6
2022-08-14T07:03:00.761Z,1006.6
2022-08-14T07:04:04.067Z,1006.6
2022-08-14T07:05:25.266Z,1006.6
2022-08-14T07:06:47.707Z,1006.6
2022-08-14T07:08:00.597Z,1006.5
2022-08-14T07:09:03.223Z,1006.5
2022-08-14T07:10:07.257Z,1006.5
2022-08-14T07:11:20.082Z,1006.5
2022-08-14T07:13:02.252Z,1006.5
2022-08-14T07:14:12.214Z,1006.5
2022-08-14T07:15:18.499Z,1006.5
2022-08-14T07:16:27.529Z,1006.4
2022-08-14T07:17:36.390Z,1006.4
2022-08-14T07:18:45.493Z,1006.4
2022-08-14T07:19:53.187Z,1006.4
2022-08-14T07:20:58.479Z,1006.5
2022-08-14T07:22:06.055Z,1006.4
2022-08-14T07:23:24.344Z,1006.4
2022-08-14T07:24:31.934Z,1006.4
2022-08-14T07:25:38.115Z,1006.4
2022-08-14T07:26:44.948Z,1006.4
2022-08-14T07:27:48.074Z,1006.4
2022-08-14T07:28:51.539Z,1006.4
2022-08-14T07:29:56.535Z,1006.4
2022-08-14T07:31:05.789Z,1006.4
2022-08-14T07:32:10.900Z,1006.4
2022-08-14T07:33:37.566Z,1006.4
2022-08-14T07:34:55.424Z,1006.4
2022-08-14T07:36:01.239Z,1006.4
2022-08-14T07:37:33.866Z,1006.4
2022-08-14T07:38:38.560Z,1006.3
2022-08-14T07:39:44.539Z,1006.4
2022-08-14T07:40:46.604Z,1006.3
2022-08-14T07:41:57.095Z,1006.3
2022-08-14T07:43:15.430Z,1006.3
2022-08-14T07:44:36.003Z,1006.3
2022-08-14T07:45:57.078Z,1006.3
2022-08-14T07:46:59.432Z,1006.3
2022-08-14T07:48:05.922Z,1006.3
2022-08-14T07:49:26.989Z,1006.3
2022-08-14T07:50:37.357Z,1006.3
2022-08-14T07:51:39.967Z,1006.3
2022-08-14T07:52:42.643Z,1006.2
2022-08-14T07:53:57.412Z,1006.3
2022-08-14T07:55:00.269Z,1006.3
2022-08-14T07:56:47.086Z,1006.3
2022-08-14T07:58:38.624Z,1006.3
2022-08-14T08:00:01.041Z,1006.3
2022-08-14T08:01:05.235Z,1006.3
2022-08-14T08:02:20.655Z,1006.3
2022-08-14T08:03:28.256Z,1006.3
2022-08-14T08:04:38.520Z,1006.3
2022-08-14T08:05:44.327Z,1006.3
2022-08-14T08:06:47.155Z,1006.3
2022-08-14T08:07:55.165Z,1006.3
2022-08-14T08:09:03.539Z,1006.3
2022-08-14T08:10:11.063Z,1006.3
2022-08-14T08:12:16.605Z,1006.3
2022-08-14T08:13:24.916Z,1006.3
2022-08-14T08:14:33.817Z,1006.3
2022-08-14T08:16:09.692Z,1006.3
2022-08-14T08:17:19.012Z,1006.2
2022-08-14T08:18:30.965Z,1006.3
2022-08-14T08:19:41.547Z,1006.3
2022-08-14T08:20:53.682Z,1006.2
2022-08-14T08:22:02.022Z,1006.2
2022-08-14T08:23:07.812Z,1006.2
2022-08-14T08:24:54.518Z,1006.2
2022-08-14T08:26:01.941Z,1006.2
2022-08-14T08:27:04.002Z,1006.2
2022-08-14T08:28:25.569Z,1006.2
2022-08-14T08:29:31.013Z,1006.2
2022-08-14T08:30:33.889Z,1006.1
2022-08-14T08:31:37.240Z,1006.2
2022-08-14T08:32:40.603Z,1006.2
2022-08-14T08:33:49.987Z,1006.2
2022-08-14T08:34:53.086Z,1006.2
2022-08-14T08:35:56.175Z,1006.2
2022-08-14T08:37:07.520Z,1006.2
2022-08-14T08:39:22.030Z,1006.1
2022-08-14T08:41:11.992Z,1006.1
2022-08-14T08:42:15.004Z,1006.1
2022-08-14T08:43:17.684Z,1006.1
2022-08-14T08:44:34.433Z,1006
2022-08-14T08:45:36.920Z,1006
2022-08-14T08:46:39.396Z,1006
2022-08-14T08:47:51.158Z,1006
2022-08-14T08:50:00.490Z,1006
2022-08-14T08:51:34.866Z,1006
2022-08-14T08:52:51.648Z,1005.9
2022-08-14T08:53:57.566Z,1006
2022-08-14T08:55:04.784Z,1005.9
2022-08-14T08:56:37.744Z,1005.9
2022-08-14T08:57:47.388Z,1005.9
2022-08-14T08:58:51.825Z,1005.9
2022-08-14T08:59:59.428Z,1005.9
2022-08-14T09:01:28.890Z,1005.9
2022-08-14T09:02:33.773Z,1005.8
2022-08-14T09:03:44.405Z,1005.8
2022-08-14T09:04:54.014Z,1005.8
2022-08-14T09:05:56.666Z,1005.8
2022-08-14T09:07:11.326Z,1005.8
2022-08-14T09:08:32.887Z,1005.8
2022-08-14T09:10:00.664Z,1005.8
2022-08-14T09:11:21.069Z,1005.8
2022-08-14T09:12:33.164Z,1005.8
2022-08-14T09:13:35.466Z,1005.8
2022-08-14T09:14:40.244Z,1005.8
2022-08-14T09:15:43.783Z,1005.8
2022-08-14T09:16:50.701Z,1005.8
2022-08-14T09:17:55.061Z,1005.8
2022-08-14T09:18:59.861Z,1005.7
2022-08-14T09:20:05.365Z,1005.8
2022-08-14T09:21:32.416Z,1005.8
2022-08-14T09:22:48.713Z,1005.7
2022-08-14T09:24:36.390Z,1005.7
2022-08-14T09:26:02.050Z,1005.7
2022-08-14T09:27:35.291Z,1005.7
2022-08-14T09:28:37.953Z,1005.7
2022-08-14T09:29:42.931Z,1005.6
2022-08-14T09:31:17.519Z,1005.7
2022-08-14T09:33:00.385Z,1005.7
2022-08-14T09:34:28.610Z,1005.6
2022-08-14T09:35:32.874Z,1005.6
2022-08-14T09:36:37.304Z,1005.6
2022-08-14T09:37:47.448Z,1005.6
2022-08-14T09:38:57.759Z,1005.6
2022-08-14T09:40:04.100Z,1005.5
2022-08-14T09:41:12.094Z,1005.5
2022-08-14T09:42:33.765Z,1005.5
2022-08-14T09:43:52.054Z,1005.5
2022-08-14T09:44:55.421Z,1005.5
2022-08-14T09:46:21.155Z,1005.4
2022-08-14T09:47:28.733Z,1005.4
2022-08-14T09:48:31.936Z,1005.4
2022-08-14T09:49:40.932Z,1005.4
2022-08-14T09:50:43.234Z,1005.4
2022-08-14T09:51:59.270Z,1005.4
2022-08-14T09:54:23.155Z,1005.4
2022-08-14T09:55:42.748Z,1005.3
2022-08-14T09:56:45.877Z,1005.3
2022-08-14T09:58:03.503Z,1005.3
2022-08-14T09:59:07.680Z,1005.2
2022-08-14T10:00:30.642Z,1005.2
2022-08-14T10:01:36.431Z,1005.2
2022-08-14T10:02:54.046Z,1005.2
2022-08-14T10:04:00.291Z,1005.2
2022-08-14T10:05:41.444Z,1005.2
2022-08-14T10:06:44.887Z,1005.1
2022-08-14T10:07:57.449Z,1005.1
2022-08-14T10:09:34.890Z,1005.1
2022-08-14T10:10:49.022Z,1005
2022-08-14T10:12:05.640Z,1005
2022-08-14T10:13:53.681Z,1005
2022-08-14T10:15:00.459Z,1005
2022-08-14T10:16:25.910Z,1005.1
2022-08-14T10:17:40.005Z,1005.1
2022-08-14T10:18:50.252Z,1005
2022-08-14T10:19:58.346Z,1005
2022-08-14T10:21:09.853Z,1004.9
2022-08-14T10:23:17.928Z,1004.9
2022-08-14T10:24:23.502Z,1004.9
2022-08-14T10:25:42.656Z,1004.9
2022-08-14T10:26:48.538Z,1004.8
2022-08-14T10:27:57.534Z,1004.8
2022-08-14T10:29:23.555Z,1004.8
2022-08-14T10:30:34.966Z,1004.8
2022-08-14T10:31:45.811Z,1004.8
2022-08-14T10:32:56.887Z,1004.7
2022-08-14T10:34:03.785Z,1004.7
2022-08-14T10:35:16.845Z,1004.7
2022-08-14T10:36:37.162Z,1004.7
2022-08-14T10:38:07.565Z,1004.6
2022-08-14T10:39:12.713Z,1004.6
2022-08-14T10:40:52.118Z,1004.6
2022-08-14T10:42:21.139Z,1004.6
2022-08-14T10:43:27.081Z,1004.5
2022-08-14T10:44:33.382Z,1004.5
2022-08-14T10:45:46.593Z,1004.5
2022-08-14T10:49:47.091Z,1004.5
2022-08-14T10:50:58.427Z,1004.5
2022-08-14T10:52:04.337Z,1004.5
2022-08-14T10:53:10.140Z,1004.5
2022-08-14T10:54:37.303Z,1004.5
2022-08-14T10:56:03.867Z,1004.4
2022-08-14T10:57:38.680Z,1004.5
2022-08-14T10:58:44.544Z,1004.4
2022-08-14T10:59:47.403Z,1004.4
2022-08-14T11:00:56.755Z,1004.3
2022-08-14T11:01:58.829Z,1004.4
2022-08-14T11:03:03.039Z,1004.4
2022-08-14T11:04:08.994Z,1004.3
2022-08-14T11:05:11.583Z,1004.3
2022-08-14T11:06:17.651Z,1004.3
2022-08-14T11:07:22.048Z,1004.3
2022-08-14T11:08:28.634Z,1004.3
2022-08-14T11:09:33.537Z,1004.3
2022-08-14T11:10:38.297Z,1004.3
2022-08-14T11:11:45.105Z,1004.3
2022-08-14T11:13:44.484Z,1004.3
2022-08-14T11:14:47.461Z,1004.2
2022-08-14T11:16:04.111Z,1004.2
2022-08-14T11:17:11.279Z,1004.2
2022-08-14T11:18:30.418Z,1004.2
2022-08-14T11:20:00.398Z,1004.2
2022-08-14T11:21:03.080Z,1004.3
2022-08-14T11:22:06.912Z,1004.3
2022-08-14T11:24:03.912Z,1004.2
2022-08-14T11:25:58.888Z,1004.2
2022-08-14T11:27:04.715Z,1004.2
2022-08-14T11:28:11.228Z,1004.1
2022-08-14T11:30:49.512Z,1004.1
2022-08-14T11:31:57.738Z,1004.2
2022-08-14T11:33:00.938Z,1004.1
2022-08-14T11:34:32.637Z,1004.1
2022-08-14T11:35:48.498Z,1004.1
2022-08-14T11:37:19.206Z,1004.1
2022-08-14T11:38:54.320Z,1004.1
2022-08-14T11:39:59.096Z,1004
2022-08-14T11:41:01.936Z,1004.1
2022-08-14T11:42:59.632Z,1004.1
2022-08-14T11:44:05.006Z,1004
2022-08-14T11:46:06.629Z,1004
2022-08-14T11:48:59.828Z,1003.9
2022-08-14T11:50:13.771Z,1003.9
2022-08-14T11:51:54.601Z,1003.9
2022-08-14T11:53:04.896Z,1003.9
2022-08-14T11:54:20.333Z,1004
2022-08-14T11:55:40.052Z,1003.9
2022-08-14T11:56:43.195Z,1003.9
2022-08-14T11:58:00.596Z,1003.9
2022-08-14T11:59:11.063Z,1003.9
2022-08-14T12:00:20.280Z,1003.9
2022-08-14T12:01:49.717Z,1003.9
2022-08-14T12:03:04.632Z,1003.8
2022-08-14T12:04:33.554Z,1003.8
2022-08-14T12:05:40.024Z,1003.8
2022-08-14T12:06:49.313Z,1003.8
2022-08-14T12:07:55.294Z,1003.8
2022-08-14T12:09:02.604Z,1003.7
2022-08-14T12:10:37.321Z,1003.7
2022-08-14T12:11:54.981Z,1003.6
2022-08-14T12:13:01.474Z,1003.7
2022-08-14T12:14:06.663Z,1003.6
2022-08-14T12:15:51.617Z,1003.7
2022-08-14T12:16:58.039Z,1003.7
2022-08-14T12:18:05.142Z,1003.7
2022-08-14T12:19:22.989Z,1003.7
2022-08-14T12:20:32.492Z,1003.7
2022-08-14T12:21:35.015Z,1003.6
2022-08-14T12:22:43.612Z,1003.7
2022-08-14T12:24:02.322Z,1003.6
2022-08-14T12:25:11.682Z,1003.6
2022-08-14T12:26:41.358Z,1003.6
2022-08-14T12:27:54.687Z,1003.6
2022-08-14T12:29:09.035Z,1003.5
2022-08-14T12:30:12.378Z,1003.5
2022-08-14T12:31:47.505Z,1003.5
2022-08-14T12:32:56.754Z,1003.5
2022-08-14T12:34:00.444Z,1003.5
2022-08-14T12:35:12.535Z,1003.4
2022-08-14T12:36:21.288Z,1003.5
2022-08-14T12:37:23.802Z,1003.4
2022-08-14T12:38:30.646Z,1003.5
2022-08-14T12:39:41.045Z,1003.5
2022-08-14T12:40:48.292Z,1003.4
2022-08-14T12:41:54.041Z,1003.4
2022-08-14T12:43:01.572Z,1003.4
2022-08-14T12:44:06.165Z,1003.3
2022-08-14T12:45:17.675Z,1003.3
2022-08-14T12:46:29.117Z,1003.3
2022-08-14T12:47:32.897Z,1003.3
2022-08-14T12:48:36.114Z,1003.2
2022-08-14T12:49:38.703Z,1003.2
2022-08-14T12:50:50.254Z,1003.2
2022-08-14T12:51:52.829Z,1003.1
2022-08-14T12:53:14.175Z,1003.1
2022-08-14T12:54:29.240Z,1003.2
2022-08-14T12:56:32.852Z,1003.1
2022-08-14T12:57:53.798Z,1003.1
2022-08-14T12:58:56.883Z,1003.1
2022-08-14T13:00:01.131Z,1003.1
2022-08-14T13:01:26.727Z,1003
2022-08-14T13:02:32.200Z,1003
2022-08-14T13:03:35.014Z,1003
2022-08-14T13:04:43.756Z,1003
2022-08-14T13:05:49.222Z,1003
2022-08-14T13:06:51.949Z,1002.9
2022-08-14T13:07:56.552Z,1003
2022-08-14T13:09:02.389Z,1003
2022-08-14T13:10:52.577Z,1002.9
2022-08-14T13:12:37.322Z,1002.9
2022-08-14T13:14:30.220Z,1002.9
2022-08-14T13:15:34.720Z,1002.8
2022-08-14T13:16:38.745Z,1002.9
2022-08-14T13:17:41.762Z,1002.8
2022-08-14T13:18:47.261Z,1002.8
2022-08-14T13:20:01.400Z,1002.8
2022-08-14T13:22:09.551Z,1002.8
2022-08-14T13:23:50.021Z,1002.8
2022-08-14T13:24:52.828Z,1002.8
2022-08-14T13:25:57.186Z,1002.8
2022-08-14T13:26:59.971Z,1002.8
2022-08-14T13:28:02.581Z,1002.8
2022-08-14T13:29:41.063Z,1002.7
2022-08-14T13:30:54.153Z,1002.7
2022-08-14T13:32:01.037Z,1002.7
2022-08-14T13:33:03.377Z,1002.7
2022-08-14T13:34:07.805Z,1002.7
2022-08-14T13:35:17.846Z,1002.7
2022-08-14T13:37:03.694Z,1002.7
2022-08-14T13:38:13.670Z,1002.6
2022-08-14T13:39:22.903Z,1002.6
2022-08-14T13:40:27.174Z,1002.5
2022-08-14T13:41:36.711Z,1002.5
2022-08-14T13:42:39.150Z,1002.5
2022-08-14T13:44:00.635Z,1002.5
2022-08-14T13:45:03.870Z,1002.5
2022-08-14T13:46:06.251Z,1002.5
2022-08-14T13:47:13.934Z,1002.5
2022-08-14T13:48:36.180Z,1002.5
2022-08-14T13:49:58.400Z,1002.5
2022-08-14T13:51:02.114Z,1002.4
2022-08-14T13:52:54.708Z,1002.4
2022-08-14T13:54:11.552Z,1002.4
2022-08-14T13:55:14.571Z,1002.3
2022-08-14T13:56:37.173Z,1002.4
2022-08-14T13:58:03.942Z,1002.4
2022-08-14T13:59:42.545Z,1002.3
2022-08-14T14:00:55.561Z,1002.4
2022-08-14T14:01:58.870Z,1002.3
2022-08-14T14:03:01.987Z,1002.3
2022-08-14T14:04:07.011Z,1002.3
2022-08-14T14:05:23.035Z,1002.3
2022-08-14T14:06:25.331Z,1002.3
2022-08-14T14:07:32.599Z,1002.3
2022-08-14T14:08:48.005Z,1002.3
2022-08-14T14:09:53.587Z,1002.2
2022-08-14T14:10:56.524Z,1002.2
2022-08-14T14:12:00.545Z,1002.2
2022-08-14T14:13:05.896Z,1002.2
2022-08-14T14:14:45.373Z,1002.1
2022-08-14T14:15:59.346Z,1002.1
2022-08-14T14:17:01.910Z,1002.1
2022-08-14T14:18:35.240Z,1002.1
2022-08-14T14:19:53.637Z,1002
2022-08-14T14:20:56.579Z,1002
2022-08-14T14:21:58.528Z,1002
2022-08-14T14:23:09.427Z,1002
2022-08-14T14:24:20.420Z,1002
2022-08-14T14:25:23.709Z,1002
2022-08-14T14:26:26.487Z,1002
2022-08-14T14:27:41.799Z,1002
2022-08-14T14:28:45.122Z,1002
2022-08-14T14:29:51.178Z,1001.9
2022-08-14T14:31:07.255Z,1002
2022-08-14T14:32:21.792Z,1001.9
2022-08-14T14:33:49.975Z,1001.9
2022-08-14T14:35:00.085Z,1001.9
2022-08-14T14:36:01.879Z,1001.8
2022-08-14T14:37:12.373Z,1001.8
2022-08-14T14:38:17.280Z,1001.9
2022-08-14T14:40:53.213Z,1001.8
2022-08-14T14:42:07.146Z,1001.8
2022-08-14T14:43:35.843Z,1001.8
2022-08-14T14:44:56.930Z,1001.8
2022-08-14T14:45:59.011Z,1001.8
2022-08-14T14:47:08.156Z,1001.7
2022-08-14T14:48:16.000Z,1001.7
2022-08-14T14:49:22.260Z,1001.7
2022-08-14T14:50:58.129Z,1001.7
2022-08-14T14:52:01.129Z,1001.7
2022-08-14T14:53:13.940Z,1001.7
2022-08-14T14:54:18.233Z,1001.7
2022-08-14T14:56:51.323Z,1001.7
2022-08-14T14:57:56.331Z,1001.7
2022-08-14T14:58:58.556Z,1001.7
2022-08-14T15:00:02.439Z,1001.7
2022-08-14T15:01:10.864Z,1001.6
2022-08-14T15:02:15.599Z,1001.6
2022-08-14T15:03:20.639Z,1001.7
2022-08-14T15:04:23.681Z,1001.7
2022-08-14T15:05:33.511Z,1001.6
2022-08-14T15:06:48.144Z,1001.7
2022-08-14T15:07:53.348Z,1001.6
2022-08-14T15:09:00.401Z,1001.7
2022-08-14T15:10:34.351Z,1001.7
2022-08-14T15:11:54.857Z,1001.6
2022-08-14T15:13:05.241Z,1001.5
2022-08-14T15:14:58.274Z,1001.6
2022-08-14T15:16:17.535Z,1001.5
2022-08-14T15:17:20.950Z,1001.5
2022-08-14T15:18:46.516Z,1001.6
2022-08-14T15:19:57.494Z,1001.6
2022-08-14T15:21:00.754Z,1001.6
2022-08-14T15:22:03.862Z,1001.5
2022-08-14T15:23:13.138Z,1001.5
2022-08-14T15:24:26.806Z,1001.5
2022-08-14T15:25:29.544Z,1001.5
2022-08-14T15:26:33.182Z,1001.5
2022-08-14T15:27:44.778Z,1001.5
2022-08-14T15:29:05.988Z,1001.5
2022-08-14T15:30:11.252Z,1001.5
2022-08-14T15:31:36.373Z,1001.5
2022-08-14T15:32:42.104Z,1001.5
2022-08-14T15:34:46.306Z,1001.5
2022-08-14T15:35:59.419Z,1001.5
2022-08-14T15:37:33.821Z,1001.5
2022-08-14T15:38:45.531Z,1001.5
2022-08-14T15:39:53.184Z,1001.5
2022-08-14T15:40:56.670Z,1001.5
2022-08-14T15:41:58.534Z,1001.4
2022-08-14T15:43:02.018Z,1001.4
2022-08-14T15:44:28.055Z,1001.4
2022-08-14T15:46:04.295Z,1001.3
2022-08-14T15:47:51.906Z,1001.3
2022-08-14T15:48:56.359Z,1001.3
2022-08-14T15:50:00.485Z,1001.3
2022-08-14T15:51:04.546Z,1001.3
2022-08-14T15:52:13.340Z,1001.3
2022-08-14T15:53:50.084Z,1001.3
2022-08-14T15:54:54.687Z,1001.3
2022-08-14T15:55:57.691Z,1001.2